sensor_id;sensor_type;location;lat;lon;timestamp;temperature;humidity
68276;DHT22;55106;51.438;-0.098;2022-08-25T00:00:19;19.28;81.75
68276;DHT22;55106;51.438;-0.098;2022-08-25T00:02:45;19.25;81.62
68276;DHT22;55106;51.438;-0.098;2022-08-25T00:05:10;19.28;81.87
68276;DHT22;55106;51.438;-0.098;2022-08-25T00:07:36;19.30;81.67
68276;DHT22;55106;51.438;-0.098;2022-08-25T00:10:04;19.33;81.60
68276;DHT22;55106;51.438;-0.098;2022-08-25T00:12:30;19.30;81.50
68276;DHT22;55106;51.438;-0.098;2022-08-25T00:14:55;19.33;81.56
68276;DHT22;55106;51.438;-0.098;2022-08-25T00:17:21;19.37;81.63
68276;DHT22;55106;51.438;-0.098;2022-08-25T00:19:46;19.37;81.64
68276;DHT22;55106;51.438;-0.098;2022-08-25T00:22:11;19.37;81.47
68276;DHT22;55106;51.438;-0.098;2022-08-25T00:24:37;19.40;81.47
68276;DHT22;55106;51.438;-0.098;2022-08-25T00:27:03;19.40;81.64
68276;DHT22;55106;51.438;-0.098;2022-08-25T00:29:30;19.45;81.59
68276;DHT22;55106;51.438;-0.098;2022-08-25T00:31:56;19.43;81.70
68276;DHT22;55106;51.438;-0.098;2022-08-25T00:34:37;19.42;81.77
68276;DHT22;55106;51.438;-0.098;2022-08-25T00:37:05;19.43;81.96
68276;DHT22;55106;51.438;-0.098;2022-08-25T00:39:31;19.36;81.71
68276;DHT22;55106;51.438;-0.098;2022-08-25T00:41:57;19.33;82.01
68276;DHT22;55106;51.438;-0.098;2022-08-25T00:44:25;19.35;82.15
68276;DHT22;55106;51.438;-0.098;2022-08-25T00:46:53;19.30;82.01
68276;DHT22;55106;51.438;-0.098;2022-08-25T00:49:20;19.33;82.37
68276;DHT22;55106;51.438;-0.098;2022-08-25T00:51:51;19.32;82.34
68276;DHT22;55106;51.438;-0.098;2022-08-25T00:54:24;19.36;82.24
68276;DHT22;55106;51.438;-0.098;2022-08-25T00:56:51;19.37;82.15
68276;DHT22;55106;51.438;-0.098;2022-08-25T00:59:19;19.46;82.03
68276;DHT22;55106;51.438;-0.098;2022-08-25T01:01:46;19.53;81.75
68276;DHT22;55106;51.438;-0.098;2022-08-25T01:04:12;19.63;81.90
68276;DHT22;55106;51.438;-0.098;2022-08-25T01:06:40;19.70;81.75
68276;DHT22;55106;51.438;-0.098;2022-08-25T01:09:07;19.76;81.28
68276;DHT22;55106;51.438;-0.098;2022-08-25T01:11:33;19.81;81.31
68276;DHT22;55106;51.438;-0.098;2022-08-25T01:14:00;19.84;80.98
68276;DHT22;55106;51.438;-0.098;2022-08-25T01:16:32;19.88;81.46
68276;DHT22;55106;51.438;-0.098;2022-08-25T01:18:58;19.94;80.88
68276;DHT22;55106;51.438;-0.098;2022-08-25T01:21:26;19.98;80.86
68276;DHT22;55106;51.438;-0.098;2022-08-25T01:23:52;20.04;81.34
68276;DHT22;55106;51.438;-0.098;2022-08-25T01:26:29;20.07;81.40
68276;DHT22;55106;51.438;-0.098;2022-08-25T01:28:57;20.10;81.69
68276;DHT22;55106;51.438;-0.098;2022-08-25T01:31:41;20.10;82.30
68276;DHT22;55106;51.438;-0.098;2022-08-25T01:34:08;20.05;82.98
68276;DHT22;55106;51.438;-0.098;2022-08-25T01:36:34;20.05;83.18
68276;DHT22;55106;51.438;-0.098;2022-08-25T01:39:00;20.14;82.71
68276;DHT22;55106;51.438;-0.098;2022-08-25T01:43:54;20.13;83.13
68276;DHT22;55106;51.438;-0.098;2022-08-25T01:46:20;20.10;83.12
68276;DHT22;55106;51.438;-0.098;2022-08-25T01:48:45;20.07;83.31
68276;DHT22;55106;51.438;-0.098;2022-08-25T01:51:14;20.10;83.41
68276;DHT22;55106;51.438;-0.098;2022-08-25T01:53:40;20.07;83.66
68276;DHT22;55106;51.438;-0.098;2022-08-25T01:56:14;20.08;83.79
68276;DHT22;55106;51.438;-0.098;2022-08-25T01:58:43;20.14;83.49
68276;DHT22;55106;51.438;-0.098;2022-08-25T02:01:17;20.15;82.82
68276;DHT22;55106;51.438;-0.098;2022-08-25T02:03:45;20.18;82.79
68276;DHT22;55106;51.438;-0.098;2022-08-25T02:06:12;20.25;82.17
68276;DHT22;55106;51.438;-0.098;2022-08-25T02:08:39;20.25;82.04
68276;DHT22;55106;51.438;-0.098;2022-08-25T02:11:05;20.26;82.23
68276;DHT22;55106;51.438;-0.098;2022-08-25T02:13:31;20.32;82.01
68276;DHT22;55106;51.438;-0.098;2022-08-25T02:15:57;20.35;81.92
68276;DHT22;55106;51.438;-0.098;2022-08-25T02:18:23;20.38;81.77
68276;DHT22;55106;51.438;-0.098;2022-08-25T02:20:49;20.38;82.44
68276;DHT22;55106;51.438;-0.098;2022-08-25T02:23:15;19.85;90.57
68276;DHT22;55106;51.438;-0.098;2022-08-25T02:25:42;19.50;91.89
68276;DHT22;55106;51.438;-0.098;2022-08-25T02:28:09;19.37;92.81
68276;DHT22;55106;51.438;-0.098;2022-08-25T02:30:36;19.30;92.91
68276;DHT22;55106;51.438;-0.098;2022-08-25T02:33:01;19.28;92.82
68276;DHT22;55106;51.438;-0.098;2022-08-25T02:35:27;19.29;92.98
68276;DHT22;55106;51.438;-0.098;2022-08-25T02:37:53;19.26;92.96
68276;DHT22;55106;51.438;-0.098;2022-08-25T02:40:19;19.30;92.98
68276;DHT22;55106;51.438;-0.098;2022-08-25T02:42:46;19.30;93.23
68276;DHT22;55106;51.438;-0.098;2022-08-25T02:45:12;19.33;93.49
68276;DHT22;55106;51.438;-0.098;2022-08-25T02:47:38;19.36;93.39
68276;DHT22;55106;51.438;-0.098;2022-08-25T02:50:04;19.39;93.39
68276;DHT22;55106;51.438;-0.098;2022-08-25T02:52:30;19.40;93.28
68276;DHT22;55106;51.438;-0.098;2022-08-25T02:54:56;19.43;93.22
68276;DHT22;55106;51.438;-0.098;2022-08-25T02:57:21;19.46;93.35
68276;DHT22;55106;51.438;-0.098;2022-08-25T02:59:47;19.47;93.22
68276;DHT22;55106;51.438;-0.098;2022-08-25T03:02:14;19.46;93.16
68276;DHT22;55106;51.438;-0.098;2022-08-25T03:04:40;19.47;93.32
68276;DHT22;55106;51.438;-0.098;2022-08-25T03:07:06;19.50;93.46
68276;DHT22;55106;51.438;-0.098;2022-08-25T03:09:31;19.50;93.47
68276;DHT22;55106;51.438;-0.098;2022-08-25T03:11:56;19.47;93.41
68276;DHT22;55106;51.438;-0.098;2022-08-25T03:14:22;19.50;93.22
68276;DHT22;55106;51.438;-0.098;2022-08-25T03:16:48;19.49;93.46
68276;DHT22;55106;51.438;-0.098;2022-08-25T03:19:14;19.43;93.38
68276;DHT22;55106;51.438;-0.098;2022-08-25T03:21:39;19.46;93.25
68276;DHT22;55106;51.438;-0.098;2022-08-25T03:24:05;19.46;93.20
68276;DHT22;55106;51.438;-0.098;2022-08-25T03:26:31;19.46;93.21
68276;DHT22;55106;51.438;-0.098;2022-08-25T03:29:15;19.45;93.12
68276;DHT22;55106;51.438;-0.098;2022-08-25T03:31:43;19.47;93.25
68276;DHT22;55106;51.438;-0.098;2022-08-25T03:34:14;19.45;93.26
68276;DHT22;55106;51.438;-0.098;2022-08-25T03:36:45;19.45;93.36
68276;DHT22;55106;51.438;-0.098;2022-08-25T03:39:11;19.46;93.44
68276;DHT22;55106;51.438;-0.098;2022-08-25T03:41:37;19.46;93.45
68276;DHT22;55106;51.438;-0.098;2022-08-25T03:44:04;19.45;93.37
68276;DHT22;55106;51.438;-0.098;2022-08-25T03:46:53;19.43;93.43
68276;DHT22;55106;51.438;-0.098;2022-08-25T03:49:20;19.43;93.29
68276;DHT22;55106;51.438;-0.098;2022-08-25T03:51:48;19.45;93.32
68276;DHT22;55106;51.438;-0.098;2022-08-25T03:54:23;19.43;93.43
68276;DHT22;55106;51.438;-0.098;2022-08-25T03:56:49;19.43;93.47
68276;DHT22;55106;51.438;-0.098;2022-08-25T03:59:14;19.42;93.53
68276;DHT22;55106;51.438;-0.098;2022-08-25T04:01:42;19.43;93.69
68276;DHT22;55106;51.438;-0.098;2022-08-25T04:04:09;19.45;93.81
68276;DHT22;55106;51.438;-0.098;2022-08-25T04:06:37;19.46;93.87
68276;DHT22;55106;51.438;-0.098;2022-08-25T04:09:03;19.45;93.87
68276;DHT22;55106;51.438;-0.098;2022-08-25T04:11:28;19.42;93.93
68276;DHT22;55106;51.438;-0.098;2022-08-25T04:13:57;19.42;93.99
68276;DHT22;55106;51.438;-0.098;2022-08-25T04:16:26;19.43;94.07
68276;DHT22;55106;51.438;-0.098;2022-08-25T04:18:53;19.45;94.11
68276;DHT22;55106;51.438;-0.098;2022-08-25T04:21:20;19.43;94.06
68276;DHT22;55106;51.438;-0.098;2022-08-25T04:23:47;19.47;94.07
68276;DHT22;55106;51.438;-0.098;2022-08-25T04:26:23;19.43;93.94
68276;DHT22;55106;51.438;-0.098;2022-08-25T04:28:49;19.43;94.03
68276;DHT22;55106;51.438;-0.098;2022-08-25T04:31:15;19.42;93.95
68276;DHT22;55106;51.438;-0.098;2022-08-25T04:33:41;19.40;94.10
68276;DHT22;55106;51.438;-0.098;2022-08-25T04:36:08;19.42;94.13
68276;DHT22;55106;51.438;-0.098;2022-08-25T04:38:36;19.42;94.27
68276;DHT22;55106;51.438;-0.098;2022-08-25T04:41:04;19.39;94.30
68276;DHT22;55106;51.438;-0.098;2022-08-25T04:43:31;19.36;94.24
68276;DHT22;55106;51.438;-0.098;2022-08-25T04:45:57;19.37;94.46
68276;DHT22;55106;51.438;-0.098;2022-08-25T04:48:23;19.25;95.50
68276;DHT22;55106;51.438;-0.098;2022-08-25T04:50:48;19.20;95.88
68276;DHT22;55106;51.438;-0.098;2022-08-25T04:53:14;19.18;96.06
68276;DHT22;55106;51.438;-0.098;2022-08-25T04:55:41;19.16;96.15
68276;DHT22;55106;51.438;-0.098;2022-08-25T04:58:07;19.09;96.46
68276;DHT22;55106;51.438;-0.098;2022-08-25T05:00:36;19.05;96.76
68276;DHT22;55106;51.438;-0.098;2022-08-25T05:03:02;19.02;96.74
68276;DHT22;55106;51.438;-0.098;2022-08-25T05:05:28;18.92;96.77
68276;DHT22;55106;51.438;-0.098;2022-08-25T05:07:54;18.92;96.73
68276;DHT22;55106;51.438;-0.098;2022-08-25T05:10:20;18.88;96.66
68276;DHT22;55106;51.438;-0.098;2022-08-25T05:12:45;18.89;96.69
68276;DHT22;55106;51.438;-0.098;2022-08-25T05:15:11;18.95;96.60
68276;DHT22;55106;51.438;-0.098;2022-08-25T05:17:55;18.92;96.58
68276;DHT22;55106;51.438;-0.098;2022-08-25T05:20:21;18.92;96.59
68276;DHT22;55106;51.438;-0.098;2022-08-25T05:22:47;18.92;96.56
68276;DHT22;55106;51.438;-0.098;2022-08-25T05:25:13;18.88;96.53
68276;DHT22;55106;51.438;-0.098;2022-08-25T05:27:40;18.92;96.48
68276;DHT22;55106;51.438;-0.098;2022-08-25T05:30:07;18.97;96.44
68276;DHT22;55106;51.438;-0.098;2022-08-25T05:32:33;18.94;96.34
68276;DHT22;55106;51.438;-0.098;2022-08-25T05:34:58;18.92;96.28
68276;DHT22;55106;51.438;-0.098;2022-08-25T05:37:23;18.88;96.21
68276;DHT22;55106;51.438;-0.098;2022-08-25T05:39:49;18.89;96.07
68276;DHT22;55106;51.438;-0.098;2022-08-25T05:42:14;18.87;95.91
68276;DHT22;55106;51.438;-0.098;2022-08-25T05:44:40;18.88;95.78
68276;DHT22;55106;51.438;-0.098;2022-08-25T05:47:06;18.85;95.52
68276;DHT22;55106;51.438;-0.098;2022-08-25T05:49:31;18.84;95.30
68276;DHT22;55106;51.438;-0.098;2022-08-25T05:51:57;18.84;95.22
68276;DHT22;55106;51.438;-0.098;2022-08-25T05:54:22;19.66;94.98
68276;DHT22;55106;51.438;-0.098;2022-08-25T05:56:48;20.11;93.01
68276;DHT22;55106;51.438;-0.098;2022-08-25T05:59:13;20.17;91.53
68276;DHT22;55106;51.438;-0.098;2022-08-25T06:01:39;19.98;92.02
68276;DHT22;55106;51.438;-0.098;2022-08-25T06:04:23;19.60;92.07
68276;DHT22;55106;51.438;-0.098;2022-08-25T06:06:48;19.39;92.64
68276;DHT22;55106;51.438;-0.098;2022-08-25T06:09:17;18.89;93.79
68276;DHT22;55106;51.438;-0.098;2022-08-25T06:11:43;18.84;94.22
68276;DHT22;55106;51.438;-0.098;2022-08-25T06:14:09;18.72;94.26
68276;DHT22;55106;51.438;-0.098;2022-08-25T06:16:36;18.67;94.34
68276;DHT22;55106;51.438;-0.098;2022-08-25T06:19:03;18.64;94.42
68276;DHT22;55106;51.438;-0.098;2022-08-25T06:21:28;18.56;94.40
68276;DHT22;55106;51.438;-0.098;2022-08-25T06:23:54;18.56;94.53
68276;DHT22;55106;51.438;-0.098;2022-08-25T06:26:20;18.53;94.67
68276;DHT22;55106;51.438;-0.098;2022-08-25T06:28:45;18.49;94.72
68276;DHT22;55106;51.438;-0.098;2022-08-25T15:51:24;21.63;77.31
68276;DHT22;55106;51.438;-0.098;2022-08-25T15:53:50;21.51;78.73
68276;DHT22;55106;51.438;-0.098;2022-08-25T15:56:15;21.52;78.57
68276;DHT22;55106;51.438;-0.098;2022-08-25T15:58:44;21.45;79.28
68276;DHT22;55106;51.438;-0.098;2022-08-25T16:01:24;21.27;78.68
68276;DHT22;55106;51.438;-0.098;2022-08-25T16:03:50;21.17;78.46
68276;DHT22;55106;51.438;-0.098;2022-08-25T16:06:16;21.11;78.19
68276;DHT22;55106;51.438;-0.098;2022-08-25T16:08:42;21.08;78.60
68276;DHT22;55106;51.438;-0.098;2022-08-25T16:11:19;21.04;79.52
68276;DHT22;55106;51.438;-0.098;2022-08-25T16:13:48;20.97;79.31
68276;DHT22;55106;51.438;-0.098;2022-08-25T16:16:15;20.91;79.99
68276;DHT22;55106;51.438;-0.098;2022-08-25T16:18:42;20.84;80.27
68276;DHT22;55106;51.438;-0.098;2022-08-25T16:21:14;20.87;79.59
68276;DHT22;55106;51.438;-0.098;2022-08-25T16:23:41;21.01;79.48
68276;DHT22;55106;51.438;-0.098;2022-08-25T16:26:08;21.08;79.29
68276;DHT22;55106;51.438;-0.098;2022-08-25T16:28:38;21.24;79.70
68276;DHT22;55106;51.438;-0.098;2022-08-25T16:31:04;21.24;78.55
68276;DHT22;55106;51.438;-0.098;2022-08-25T16:33:30;21.31;78.52
68276;DHT22;55106;51.438;-0.098;2022-08-25T16:36:07;21.18;78.48
68276;DHT22;55106;51.438;-0.098;2022-08-25T16:38:33;21.21;78.83
68276;DHT22;55106;51.438;-0.098;2022-08-25T16:41:04;20.93;78.55
68276;DHT22;55106;51.438;-0.098;2022-08-25T16:43:30;21.04;78.73
68276;DHT22;55106;51.438;-0.098;2022-08-25T16:46:00;20.97;79.60
68276;DHT22;55106;51.438;-0.098;2022-08-25T16:48:27;20.90;79.42
68276;DHT22;55106;51.438;-0.098;2022-08-25T16:50:52;20.76;79.46
68276;DHT22;55106;51.438;-0.098;2022-08-25T16:53:18;20.57;79.92
68276;DHT22;55106;51.438;-0.098;2022-08-25T16:56:03;20.57;79.94
68276;DHT22;55106;51.438;-0.098;2022-08-25T16:58:30;20.56;79.62
68276;DHT22;55106;51.438;-0.098;2022-08-25T17:01:11;20.39;79.95
68276;DHT22;55106;51.438;-0.098;2022-08-25T17:03:38;20.31;80.63
68276;DHT22;55106;51.438;-0.098;2022-08-25T17:06:05;20.29;80.07
68276;DHT22;55106;51.438;-0.098;2022-08-25T17:08:30;20.36;80.16
68276;DHT22;55106;51.438;-0.098;2022-08-25T17:11:09;20.52;80.41
68276;DHT22;55106;51.438;-0.098;2022-08-25T17:13:36;20.59;79.55
68276;DHT22;55106;51.438;-0.098;2022-08-25T17:16:02;20.63;79.70
68276;DHT22;55106;51.438;-0.098;2022-08-25T17:18:28;20.62;79.69
68276;DHT22;55106;51.438;-0.098;2022-08-25T17:21:02;20.62;79.79
68276;DHT22;55106;51.438;-0.098;2022-08-25T17:23:29;20.42;79.13
68276;DHT22;55106;51.438;-0.098;2022-08-25T17:25:55;20.35;79.44
68276;DHT22;55106;51.438;-0.098;2022-08-25T17:28:21;20.56;79.71
68276;DHT22;55106;51.438;-0.098;2022-08-25T17:30:47;20.48;79.69
68276;DHT22;55106;51.438;-0.098;2022-08-25T17:33:13;20.39;80.55
68276;DHT22;55106;51.438;-0.098;2022-08-25T17:35:45;20.35;80.34
68276;DHT22;55106;51.438;-0.098;2022-08-25T17:38:12;20.01;80.07
68276;DHT22;55106;51.438;-0.098;2022-08-25T17:40:38;19.93;80.67
68276;DHT22;55106;51.438;-0.098;2022-08-25T17:43:04;19.78;80.31
68276;DHT22;55106;51.438;-0.098;2022-08-25T17:45:30;19.76;81.20
68276;DHT22;55106;51.438;-0.098;2022-08-25T17:47:55;19.70;80.49
68276;DHT22;55106;51.438;-0.098;2022-08-25T17:50:21;19.57;80.96
68276;DHT22;55106;51.438;-0.098;2022-08-25T17:52:49;19.59;80.88
68276;DHT22;55106;51.438;-0.098;2022-08-25T17:55:15;19.50;80.41
68276;DHT22;55106;51.438;-0.098;2022-08-25T17:57:40;19.37;80.69
68276;DHT22;55106;51.438;-0.098;2022-08-25T18:00:07;19.35;81.90
68276;DHT22;55106;51.438;-0.098;2022-08-25T18:02:35;19.33;81.94
68276;DHT22;55106;51.438;-0.098;2022-08-25T18:05:03;19.23;81.70
68276;DHT22;55106;51.438;-0.098;2022-08-25T18:07:29;19.19;82.01
68276;DHT22;55106;51.438;-0.098;2022-08-25T18:09:55;19.14;82.35
68276;DHT22;55106;51.438;-0.098;2022-08-25T18:12:20;19.16;82.73
68276;DHT22;55106;51.438;-0.098;2022-08-25T18:14:46;19.20;81.66
68276;DHT22;55106;51.438;-0.098;2022-08-25T18:17:11;19.16;81.92
68276;DHT22;55106;51.438;-0.098;2022-08-25T18:19:36;19.18;82.23
68276;DHT22;55106;51.438;-0.098;2022-08-25T18:22:05;19.05;81.76
68276;DHT22;55106;51.438;-0.098;2022-08-25T18:24:31;18.97;82.18
68276;DHT22;55106;51.438;-0.098;2022-08-25T18:26:57;18.94;82.17
68276;DHT22;55106;51.438;-0.098;2022-08-25T18:29:23;18.89;82.88
68276;DHT22;55106;51.438;-0.098;2022-08-25T18:31:48;18.77;82.94
68276;DHT22;55106;51.438;-0.098;2022-08-25T18:34:16;18.75;82.74
68276;DHT22;55106;51.438;-0.098;2022-08-25T18:36:42;18.72;83.12
68276;DHT22;55106;51.438;-0.098;2022-08-25T18:39:08;18.67;83.32
68276;DHT22;55106;51.438;-0.098;2022-08-25T18:41:52;18.67;83.73
68276;DHT22;55106;51.438;-0.098;2022-08-25T18:44:18;18.68;83.72
68276;DHT22;55106;51.438;-0.098;2022-08-25T18:46:43;18.64;82.71
68276;DHT22;55106;51.438;-0.098;2022-08-25T18:49:09;18.65;82.89
68276;DHT22;55106;51.438;-0.098;2022-08-25T18:51:35;18.64;82.80
68276;DHT22;55106;51.438;-0.098;2022-08-25T18:54:00;18.64;83.10
68276;DHT22;55106;51.438;-0.098;2022-08-25T18:56:28;18.64;82.96
68276;DHT22;55106;51.438;-0.098;2022-08-25T18:58:53;18.59;82.49
68276;DHT22;55106;51.438;-0.098;2022-08-25T19:01:19;18.59;82.72
68276;DHT22;55106;51.438;-0.098;2022-08-25T19:03:44;18.59;82.75
68276;DHT22;55106;51.438;-0.098;2022-08-25T19:06:10;18.56;83.12
68276;DHT22;55106;51.438;-0.098;2022-08-25T19:08:36;18.49;82.73
68276;DHT22;55106;51.438;-0.098;2022-08-25T19:11:04;18.44;82.99
68276;DHT22;55106;51.438;-0.098;2022-08-25T19:13:29;18.39;82.74
68276;DHT22;55106;51.438;-0.098;2022-08-25T19:15:55;18.41;82.99
68276;DHT22;55106;51.438;-0.098;2022-08-25T19:18:20;18.39;83.64
68276;DHT22;55106;51.438;-0.098;2022-08-25T19:20:46;18.37;83.05
68276;DHT22;55106;51.438;-0.098;2022-08-25T19:23:11;18.33;83.00
68276;DHT22;55106;51.438;-0.098;2022-08-25T19:25:37;18.29;82.90
68276;DHT22;55106;51.438;-0.098;2022-08-25T19:28:05;18.29;83.08
68276;DHT22;55106;51.438;-0.098;2022-08-25T19:30:30;18.26;82.51
68276;DHT22;55106;51.438;-0.098;2022-08-25T19:32:58;18.28;82.33
68276;DHT22;55106;51.438;-0.098;2022-08-25T19:35:33;18.19;82.61
68276;DHT22;55106;51.438;-0.098;2022-08-25T19:38:01;18.21;82.82
68276;DHT22;55106;51.438;-0.098;2022-08-25T19:40:28;18.22;83.19
68276;DHT22;55106;51.438;-0.098;2022-08-25T19:42:54;18.21;82.72
68276;DHT22;55106;51.438;-0.098;2022-08-25T19:45:21;18.19;82.59
68276;DHT22;55106;51.438;-0.098;2022-08-25T19:47:47;18.21;82.61
68276;DHT22;55106;51.438;-0.098;2022-08-25T19:50:13;18.19;82.49
68276;DHT22;55106;51.438;-0.098;2022-08-25T19:52:40;18.21;82.14
68276;DHT22;55106;51.438;-0.098;2022-08-25T19:55:06;18.23;82.68
68276;DHT22;55106;51.438;-0.098;2022-08-25T19:57:32;18.21;82.58
68276;DHT22;55106;51.438;-0.098;2022-08-25T19:59:57;18.17;82.27
68276;DHT22;55106;51.438;-0.098;2022-08-25T20:02:25;18.13;83.01
68276;DHT22;55106;51.438;-0.098;2022-08-25T20:04:53;18.10;82.97
68276;DHT22;55106;51.438;-0.098;2022-08-25T20:07:22;18.12;82.57
68276;DHT22;55106;51.438;-0.098;2022-08-25T20:09:50;18.10;83.27
68276;DHT22;55106;51.438;-0.098;2022-08-25T20:12:16;18.09;82.87
68276;DHT22;55106;51.438;-0.098;2022-08-25T20:14:42;18.06;83.15
68276;DHT22;55106;51.438;-0.098;2022-08-25T20:17:08;18.01;83.35
68276;DHT22;55106;51.438;-0.098;2022-08-25T20:19:34;17.98;83.30
68276;DHT22;55106;51.438;-0.098;2022-08-25T20:21:59;17.92;83.22
68276;DHT22;55106;51.438;-0.098;2022-08-25T20:24:24;17.86;83.51
68276;DHT22;55106;51.438;-0.098;2022-08-25T20:27:08;17.75;83.92
68276;DHT22;55106;51.438;-0.098;2022-08-25T20:29:34;17.67;84.02
68276;DHT22;55106;51.438;-0.098;2022-08-25T20:31:59;17.54;84.25
68276;DHT22;55106;51.438;-0.098;2022-08-25T20:34:28;17.41;84.80
68276;DHT22;55106;51.438;-0.098;2022-08-25T20:36:54;17.33;85.16
68276;DHT22;55106;51.438;-0.098;2022-08-25T20:39:20;17.24;85.07
68276;DHT22;55106;51.438;-0.098;2022-08-25T20:41:47;17.15;85.56
68276;DHT22;55106;51.438;-0.098;2022-08-25T20:44:12;17.09;85.61
68276;DHT22;55106;51.438;-0.098;2022-08-25T20:46:38;17.06;85.75
68276;DHT22;55106;51.438;-0.098;2022-08-25T20:49:03;16.99;86.25
68276;DHT22;55106;51.438;-0.098;2022-08-25T20:51:28;16.90;86.78
68276;DHT22;55106;51.438;-0.098;2022-08-25T20:53:55;16.85;86.36
68276;DHT22;55106;51.438;-0.098;2022-08-25T20:56:20;16.79;86.25
68276;DHT22;55106;51.438;-0.098;2022-08-25T20:58:46;16.73;86.55
68276;DHT22;55106;51.438;-0.098;2022-08-25T21:01:20;16.78;86.31
68276;DHT22;55106;51.438;-0.098;2022-08-25T21:03:47;16.76;86.26
68276;DHT22;55106;51.438;-0.098;2022-08-25T21:06:13;16.75;86.49
68276;DHT22;55106;51.438;-0.098;2022-08-25T21:08:41;16.72;86.47
68276;DHT22;55106;51.438;-0.098;2022-08-25T21:11:16;16.71;86.26
68276;DHT22;55106;51.438;-0.098;2022-08-25T21:13:42;16.67;86.71
68276;DHT22;55106;51.438;-0.098;2022-08-25T21:16:10;16.57;86.78
68276;DHT22;55106;51.438;-0.098;2022-08-25T21:18:35;16.57;86.92
68276;DHT22;55106;51.438;-0.098;2022-08-25T21:21:06;16.54;86.92
68276;DHT22;55106;51.438;-0.098;2022-08-25T21:23:39;16.50;87.28
68276;DHT22;55106;51.438;-0.098;2022-08-25T21:26:06;16.47;87.22
68276;DHT22;55106;51.438;-0.098;2022-08-25T21:28:35;16.40;87.59
68276;DHT22;55106;51.438;-0.098;2022-08-25T21:31:01;16.32;88.14
68276;DHT22;55106;51.438;-0.098;2022-08-25T21:33:26;16.28;88.57
68276;DHT22;55106;51.438;-0.098;2022-08-25T21:35:52;16.24;88.86
68276;DHT22;55106;51.438;-0.098;2022-08-25T21:38:17;16.14;89.30
68276;DHT22;55106;51.438;-0.098;2022-08-25T21:40:43;16.10;89.30
68276;DHT22;55106;51.438;-0.098;2022-08-25T21:43:08;16.06;89.59
68276;DHT22;55106;51.438;-0.098;2022-08-25T21:45:38;16.00;89.88
68276;DHT22;55106;51.438;-0.098;2022-08-25T21:48:05;15.90;89.94
68276;DHT22;55106;51.438;-0.098;2022-08-25T21:50:32;15.86;90.20
68276;DHT22;55106;51.438;-0.098;2022-08-25T21:52:58;15.86;90.18
68276;DHT22;55106;51.438;-0.098;2022-08-25T21:55:23;15.82;90.12
68276;DHT22;55106;51.438;-0.098;2022-08-25T21:57:49;15.82;90.21
68276;DHT22;55106;51.438;-0.098;2022-08-25T22:00:15;15.82;90.34
68276;DHT22;55106;51.438;-0.098;2022-08-25T22:02:42;15.78;90.68
68276;DHT22;55106;51.438;-0.098;2022-08-25T22:05:08;15.79;90.43
68276;DHT22;55106;51.438;-0.098;2022-08-25T22:07:35;15.76;90.43
68276;DHT22;55106;51.438;-0.098;2022-08-25T22:10:00;15.79;90.77
68276;DHT22;55106;51.438;-0.098;2022-08-25T22:12:26;15.79;90.66
68276;DHT22;55106;51.438;-0.098;2022-08-25T22:14:51;15.83;90.39
68276;DHT22;55106;51.438;-0.098;2022-08-25T22:17:17;15.93;90.37
68276;DHT22;55106;51.438;-0.098;2022-08-25T22:19:42;16.04;90.69
68276;DHT22;55106;51.438;-0.098;2022-08-25T22:22:08;16.13;90.30
68276;DHT22;55106;51.438;-0.098;2022-08-25T22:24:33;16.17;90.09
68276;DHT22;55106;51.438;-0.098;2022-08-25T22:26:59;16.20;89.47
68276;DHT22;55106;51.438;-0.098;2022-08-25T22:29:24;16.21;89.26
68276;DHT22;55106;51.438;-0.098;2022-08-25T22:31:50;16.23;89.62
68276;DHT22;55106;51.438;-0.098;2022-08-25T22:34:15;16.18;89.53
68276;DHT22;55106;51.438;-0.098;2022-08-25T22:36:41;16.16;89.00
68276;DHT22;55106;51.438;-0.098;2022-08-25T22:39:07;16.11;89.17
68276;DHT22;55106;51.438;-0.098;2022-08-25T22:41:32;16.03;89.26
68276;DHT22;55106;51.438;-0.098;2022-08-25T22:43:58;16.02;89.19
68276;DHT22;55106;51.438;-0.098;2022-08-25T22:46:26;15.93;89.86
68276;DHT22;55106;51.438;-0.098;2022-08-25T22:48:54;15.94;90.07
68276;DHT22;55106;51.438;-0.098;2022-08-25T22:51:24;15.94;89.88
68276;DHT22;55106;51.438;-0.098;2022-08-25T22:53:50;15.99;89.82
68276;DHT22;55106;51.438;-0.098;2022-08-25T22:56:19;16.04;89.56
68276;DHT22;55106;51.438;-0.098;2022-08-25T22:58:45;16.11;89.36
68276;DHT22;55106;51.438;-0.098;2022-08-25T23:01:16;16.21;88.96
68276;DHT22;55106;51.438;-0.098;2022-08-25T23:03:43;16.23;88.27
68276;DHT22;55106;51.438;-0.098;2022-08-25T23:06:17;16.24;89.03
68276;DHT22;55106;51.438;-0.098;2022-08-25T23:08:43;16.23;88.58
68276;DHT22;55106;51.438;-0.098;2022-08-25T23:11:14;16.14;88.04
68276;DHT22;55106;51.438;-0.098;2022-08-25T23:13:40;16.16;88.36
68276;DHT22;55106;51.438;-0.098;2022-08-25T23:16:07;16.13;88.52
68276;DHT22;55106;51.438;-0.098;2022-08-25T23:18:34;16.00;87.98
68276;DHT22;55106;51.438;-0.098;2022-08-25T23:20:59;15.92;88.49
68276;DHT22;55106;51.438;-0.098;2022-08-25T23:23:44;15.83;88.58
68276;DHT22;55106;51.438;-0.098;2022-08-25T23:26:11;15.81;89.36
68276;DHT22;55106;51.438;-0.098;2022-08-25T23:28:37;15.70;88.79
68276;DHT22;55106;51.438;-0.098;2022-08-25T23:31:07;15.70;89.67
68276;DHT22;55106;51.438;-0.098;2022-08-25T23:33:33;15.62;89.46
68276;DHT22;55106;51.438;-0.098;2022-08-25T23:36:05;15.48;89.59
68276;DHT22;55106;51.438;-0.098;2022-08-25T23:38:31;15.39;89.82
68276;DHT22;55106;51.438;-0.098;2022-08-25T23:40:56;15.36;89.93
68276;DHT22;55106;51.438;-0.098;2022-08-25T23:43:23;15.27;90.11
68276;DHT22;55106;51.438;-0.098;2022-08-25T23:45:48;15.18;90.43
68276;DHT22;55106;51.438;-0.098;2022-08-25T23:48:14;15.12;90.50
68276;DHT22;55106;51.438;-0.098;2022-08-25T23:50:45;15.03;90.78
68276;DHT22;55106;51.438;-0.098;2022-08-25T23:53:12;14.96;91.26
68276;DHT22;55106;51.438;-0.098;2022-08-25T23:55:38;14.88;91.41
68276;DHT22;55106;51.438;-0.098;2022-08-25T23:58:04;14.83;91.72
